Time;durP1;ratioP1;P1;durP2;ratioP2;P2;SDS_P1;SDS_P2;PMS_P1;PMS_P2;Temp;Humidity;BMP_temperature;BMP_pressure;BME280_temperature;BME280_humidity;BME280_pressure;Samples;Min_cycle;Max_cycle;Signal;HPM_P1;HPM_P2
2023/09/23 00:03:31;;;;;;;4.12;1.48;;;;;;;22.46;60.40;98942.72;5145339;27;20138;-96
2023/09/23 00:10:55;;;;;;;0.70;0.60;;;;;;;22.26;60.40;98952.56;5099319;28;20081;-95
2023/09/23 00:35:36;;;;;;;0.15;0.15;;;;;;;22.06;60.39;98945.59;5229437;27;20074;-96
2023/09/23 00:38:06;;;;;;;0.80;0.80;;;;;;;22.01;60.38;98946.00;5216589;27;20067;-96
2023/09/23 00:40:38;;;;;;;0.03;0.03;;;;;;;21.91;60.37;98953.09;5224304;27;20157;-96
2023/09/23 00:43:07;;;;;;;1.15;0.55;;;;;;;22.16;60.39;98957.03;5238692;27;20236;-94
2023/09/23 00:45:34;;;;;;;0.00;0.00;;;;;;;22.13;60.39;98954.66;5307092;26;20105;-95
2023/09/23 00:47:59;;;;;;;2.25;1.02;;;;;;;22.18;60.39;98941.81;5307765;26;20079;-94
2023/09/23 00:50:24;;;;;;;1.50;0.90;;;;;;;22.08;60.39;98940.16;5289339;26;20060;-96
2023/09/23 00:52:51;;;;;;;4.43;0.88;;;;;;;22.06;60.39;98937.66;5289359;26;20120;-95
2023/09/23 00:55:20;;;;;;;1.25;0.85;;;;;;;22.01;60.38;98940.72;5289527;26;20067;-95
2023/09/23 00:57:50;;;;;;;9.52;1.55;;;;;;;21.98;60.38;98948.91;5289683;26;20064;-95
2023/09/23 01:00:25;;;;;;;1.10;1.00;;;;;;;21.95;60.38;98941.25;5291336;26;20063;-96
2023/09/23 01:02:50;;;;;;;0.10;0.10;;;;;;;22.04;60.38;98948.41;5291444;26;20123;-96
2023/09/23 01:05:19;;;;;;;0.75;0.75;;;;;;;22.20;60.39;98949.63;5289785;26;20074;-96
2023/09/23 01:07:48;;;;;;;0.13;0.13;;;;;;;22.17;60.39;98949.91;5308913;26;20061;-95
2023/09/23 01:10:16;;;;;;;1.02;0.75;;;;;;;22.22;60.40;98960.91;5291605;26;20060;-96
2023/09/23 01:12:44;;;;;;;1.05;0.70;;;;;;;22.34;60.40;98959.78;5291098;26;20087;-96
2023/09/23 01:15:17;;;;;;;0.62;0.62;;;;;;;22.25;60.38;98974.75;5290706;26;20602;-96
2023/09/23 01:17:48;;;;;;;0.98;0.37;;;;;;;22.33;60.40;98969.56;5292440;26;20076;-96
2023/09/23 01:20:14;;;;;;;4.43;0.55;;;;;;;22.20;60.39;98976.12;5308490;26;20064;-95
2023/09/23 01:22:40;;;;;;;0.47;0.47;;;;;;;22.15;60.38;98976.56;5288145;26;20079;-95
2023/09/23 01:25:06;;;;;;;0.45;0.45;;;;;;;21.96;60.38;98976.53;5289201;26;20062;-95
2023/09/23 01:27:34;;;;;;;1.10;0.62;;;;;;;21.99;60.37;98981.53;5289054;26;20060;-96
2023/09/23 01:30:29;;;;;;;0.10;0.10;;;;;;;22.00;60.38;98972.63;5315844;26;20032;-96
2023/09/23 01:33:52;;;;;;;0.88;0.60;;;;;;;22.00;60.37;98981.44;5346798;26;20025;-96
2023/09/23 01:37:09;;;;;;;2.00;1.00;;;;;;;22.02;60.39;98992.72;5337699;26;20040;-96
2023/09/23 02:23:05;;;;;;;0.03;0.03;;;;;;;22.35;60.40;99017.97;5358728;26;20052;-96
2023/09/23 02:25:53;;;;;;;1.37;1.27;;;;;;;22.51;60.40;99025.37;5342835;26;20105;-96
2023/09/23 02:29:00;;;;;;;3.55;1.58;;;;;;;22.59;60.42;99030.78;5344416;26;20035;-96
2023/09/23 02:40:27;;;;;;;1.27;0.75;;;;;;;22.02;60.38;99045.72;5261625;26;20344;-96
2023/09/23 02:45:56;;;;;;;0.80;0.80;;;;;;;22.07;60.38;99052.47;5298474;26;20067;-96
2023/09/23 02:48:21;;;;;;;0.40;0.40;;;;;;;21.97;60.38;99060.34;5298638;27;20061;-95
2023/09/23 03:21:50;;;;;;;0.17;0.17;;;;;;;22.73;60.42;99049.91;5324458;26;20128;-96
2023/09/23 03:24:18;;;;;;;1.90;0.80;;;;;;;22.75;60.41;99046.13;5319697;26;20078;-96
2023/09/23 03:26:46;;;;;;;0.50;0.45;;;;;;;22.95;60.42;99034.50;5357207;26;20086;-96
2023/09/23 03:29:13;;;;;;;0.43;0.43;;;;;;;23.02;60.42;99016.16;5342290;26;20134;-95
2023/09/23 03:34:14;;;;;;;0.47;0.47;;;;;;;23.01;60.42;99019.81;5313018;26;20112;-96
2023/09/23 03:36:41;;;;;;;0.52;0.20;;;;;;;23.02;60.43;99018.00;5338007;26;20047;-95
2023/09/23 03:39:30;;;;;;;3.20;0.82;;;;;;;23.03;60.42;99015.19;5339258;26;20024;-96
2023/09/23 03:41:56;;;;;;;4.18;0.60;;;;;;;23.01;60.42;99011.00;5357031;26;20032;-96
2023/09/23 03:44:22;;;;;;;1.45;1.20;;;;;;;22.86;60.42;99024.75;5359865;26;20112;-96
2023/09/23 03:46:50;;;;;;;4.85;1.65;;;;;;;23.05;60.43;99031.81;5358411;26;20028;-96
2023/09/23 03:49:20;;;;;;;1.02;0.93;;;;;;;22.89;60.42;99034.22;5338142;26;20118;-96
2023/09/23 03:51:47;;;;;;;6.78;0.90;;;;;;;22.95;60.42;99034.50;5336410;26;20108;-94
2023/09/23 03:54:13;;;;;;;1.05;0.95;;;;;;;22.99;60.43;99031.56;5335850;26;20064;-96
2023/09/23 03:56:42;;;;;;;3.10;2.05;;;;;;;23.04;60.44;99035.44;5336139;26;20052;-96
2023/09/23 03:59:09;;;;;;;0.98;0.90;;;;;;;22.97;60.43;99044.97;5335417;26;20028;-96
2023/09/23 04:01:39;;;;;;;0.90;0.40;;;;;;;23.01;60.42;99056.13;5355104;26;20055;-96
2023/09/23 04:04:07;;;;;;;1.85;0.90;;;;;;;23.04;60.43;99051.38;5355360;26;20055;-95
2023/09/23 04:06:34;;;;;;;0.32;0.32;;;;;;;;;;5336183;26;20048;-96
2023/09/23 04:09:09;;;;;;;1.12;0.68;;;;;;;23.10;60.43;99044.62;5355067;26;20107;-96
2023/09/23 04:11:35;;;;;;;0.93;0.93;;;;;;;23.14;60.43;99048.66;5374296;26;20060;-96
2023/09/23 04:14:01;;;;;;;1.75;1.15;;;;;;;23.14;60.43;99056.63;5335807;26;20328;-96
2023/09/23 04:16:30;;;;;;;1.17;1.05;;;;;;;23.15;60.43;99058.28;5356799;26;20024;-95
2023/09/23 04:18:55;;;;;;;0.00;0.00;;;;;;;23.22;60.44;99070.87;5338055;26;20074;-96
2023/09/23 04:21:25;;;;;;;0.52;0.30;;;;;;;23.12;60.44;99055.94;5351366;26;20056;-96
2023/09/23 04:23:52;;;;;;;0.08;0.08;;;;;;;23.06;60.43;99056.53;5331832;26;20086;-95
2023/09/23 04:26:21;;;;;;;0.75;0.65;;;;;;;22.93;60.42;99070.09;5331789;26;20084;-96
2023/09/23 04:28:48;;;;;;;28.77;1.40;;;;;;;23.01;60.43;99051.66;5333353;26;20068;-96
2023/09/23 04:31:15;;;;;;;2.35;2.17;;;;;;;22.99;60.42;99058.94;5340616;26;20468;-95
2023/09/23 04:36:17;;;;;;;0.73;0.73;;;;;;;22.86;60.42;99064.53;5328417;26;20048;-96
2023/09/23 04:39:17;;;;;;;0.57;0.57;;;;;;;22.87;60.41;99060.91;5338764;26;20044;-95
2023/09/23 04:42:18;;;;;;;7.12;2.28;;;;;;;22.96;60.42;99064.53;5337637;27;20118;-96
2023/09/23 05:03:23;;;;;;;0.13;0.13;;;;;;;22.80;60.42;99077.53;5315713;27;20035;-95
2023/09/23 05:05:52;;;;;;;0.35;0.35;;;;;;;22.87;60.41;99090.09;5276223;27;20033;-95
2023/09/23 05:09:16;;;;;;;0.68;0.68;;;;;;;22.76;60.41;99092.91;5271437;27;20669;-96
2023/09/23 05:12:08;;;;;;;0.37;0.32;;;;;;;22.86;60.42;99109.66;5319872;27;20044;-95
2023/09/23 05:14:44;;;;;;;5.35;1.15;;;;;;;22.72;60.40;99115.38;5313605;27;20044;-96
2023/09/23 05:17:26;;;;;;;3.40;1.90;;;;;;;22.75;60.41;99111.63;5315411;27;20029;-95
2023/09/23 05:20:35;;;;;;;;;;;;;;;;;;;;;
2023/09/23 05:23:04;;;;;;;2.28;1.20;;;;;;;22.75;60.41;99112.44;5261411;27;35790;-95
2023/09/23 05:29:50;;;;;;;0.20;0.20;;;;;;;22.74;60.41;99139.13;5244024;27;20351;-94
2023/09/23 05:32:27;;;;;;;0.30;0.30;;;;;;;22.79;60.41;99137.72;5244773;26;20100;-95
2023/09/23 05:35:55;;;;;;;;;;;;;;;;;;;;;
2023/09/23 05:38:24;;;;;;;1.42;0.30;;;;;;;22.88;60.41;99165.25;5365754;26;35901;-95
2023/09/23 05:40:52;;;;;;;0.53;0.53;;;;;;;22.93;60.42;99177.09;5338276;26;20100;-92
2023/09/23 05:43:18;;;;;;;0.00;0.00;;;;;;;22.98;60.43;99183.81;5330959;26;20775;-96
2023/09/23 05:45:43;;;;;;;0.52;0.52;;;;;;;22.84;60.41;99185.09;5312637;26;20468;-96
2023/09/23 05:48:09;;;;;;;0.62;0.62;;;;;;;22.87;60.41;99198.06;5309440;26;20068;-96
2023/09/23 05:50:35;;;;;;;0.10;0.10;;;;;;;23.01;60.42;99199.47;5327215;26;20074;-96
2023/09/23 05:53:01;;;;;;;4.12;2.45;;;;;;;22.89;60.42;99206.72;5327905;26;20053;-94
2023/09/23 05:55:27;;;;;;;1.45;0.70;;;;;;;22.84;60.42;99217.75;5310645;26;20067;-95
2023/09/23 05:57:53;;;;;;;0.62;0.62;;;;;;;22.84;60.42;99224.88;5310068;26;20075;-95
2023/09/23 06:00:19;;;;;;;0.13;0.13;;;;;;;22.84;60.41;99216.94;5328638;26;20056;-95
2023/09/23 06:02:45;;;;;;;0.47;0.45;;;;;;;22.84;60.41;99227.53;5326321;26;20060;-95
2023/09/23 06:05:11;;;;;;;21.02;0.73;;;;;;;22.67;60.41;99223.72;5326448;26;20053;-96
2023/09/23 06:07:37;;;;;;;0.00;0.00;;;;;;;22.72;60.40;99229.47;5326532;26;20143;-96
2023/09/23 06:10:04;;;;;;;0.25;0.25;;;;;;;22.79;60.41;99235.91;5326230;26;20060;-96
2023/09/23 06:12:30;;;;;;;0.22;0.22;;;;;;;22.65;60.41;99236.28;5326287;26;20097;-96
2023/09/23 06:14:57;;;;;;;0.75;0.75;;;;;;;22.70;60.40;99231.41;5326479;26;20069;-95
2023/09/23 06:17:23;;;;;;;12.48;0.88;;;;;;;22.66;60.41;99219.41;5308093;26;20670;-96
2023/09/23 06:19:49;;;;;;;6.18;1.12;;;;;;;22.35;60.39;99221.31;5308801;26;20075;-96
2023/09/23 06:22:14;;;;;;;2.92;1.55;;;;;;;22.05;60.37;99225.72;5326735;26;20096;-96
2023/09/23 06:24:50;;;;;;;2.28;1.15;;;;;;;22.04;60.38;99236.44;5329343;26;20219;-96
2023/09/23 06:27:18;;;;;;;0.15;0.15;;;;;;;21.69;60.35;99242.94;5354696;26;20070;-96
2023/09/23 06:29:51;;;;;;;0.32;0.32;;;;;;;21.55;60.35;99259.19;5339260;26;20055;-96
2023/09/23 06:32:58;;;;;;;0.10;0.10;;;;;;;21.26;60.34;99274.88;5341786;26;20038;-96
2023/09/23 06:36:08;;;;;;;0.82;0.82;;;;;;;21.04;60.32;99289.00;5362067;26;20044;-96
2023/09/23 06:41:24;;;;;;;0.10;0.10;;;;;;;21.05;60.32;99354.19;5353432;26;20765;-95
2023/09/23 06:43:51;;;;;;;0.37;0.28;;;;;;;21.07;60.32;99351.47;5300274;26;20037;-95
2023/09/23 06:46:17;;;;;;;0.13;0.13;;;;;;;21.05;60.32;99350.72;5335541;26;20071;-95
2023/09/23 06:48:43;;;;;;;0.00;0.00;;;;;;;21.10;60.33;99357.34;5357851;26;20028;-95
2023/09/23 06:51:13;;;;;;;0.20;0.15;;;;;;;21.10;60.33;99364.44;5341146;26;20016;-94
2023/09/23 06:53:40;;;;;;;0.00;0.00;;;;;;;20.91;60.31;99380.12;5340346;26;20076;-94
2023/09/23 06:56:06;;;;;;;0.00;0.00;;;;;;;20.84;60.31;99382.41;5337029;26;20075;-94
2023/09/23 06:58:31;;;;;;;2.95;0.20;;;;;;;21.09;60.33;99370.69;5334823;26;20056;-94
2023/09/23 07:00:57;;;;;;;0.43;0.43;;;;;;;21.13;60.33;99380.06;5316975;26;20066;-94
2023/09/23 07:03:23;;;;;;;0.43;0.43;;;;;;;20.93;60.31;99400.19;5321680;26;20036;-96
2023/09/23 07:05:52;;;;;;;0.40;0.40;;;;;;;21.01;60.33;99399.56;5322481;26;20063;-96
2023/09/23 07:08:22;;;;;;;0.00;0.00;;;;;;;21.12;60.33;99407.50;5341119;26;20088;-95
2023/09/23 07:10:49;;;;;;;0.25;0.25;;;;;;;21.04;60.33;99394.88;5322791;26;20115;-95
2023/09/23 07:13:15;;;;;;;0.43;0.35;;;;;;;21.14;60.32;99395.81;5312321;26;20048;-94
2023/09/23 07:15:41;;;;;;;0.17;0.10;;;;;;;21.14;60.32;99422.28;5311371;26;20131;-95
2023/09/23 07:18:07;;;;;;;0.20;0.20;;;;;;;21.11;60.33;99409.31;5337055;26;20034;-95
2023/09/23 07:20:32;;;;;;;0.68;0.65;;;;;;;21.17;60.32;99409.75;5328776;26;20064;-96
2023/09/23 07:22:58;;;;;;;0.45;0.45;;;;;;;21.33;60.34;99416.38;5324175;26;20043;-95
2023/09/23 07:25:24;;;;;;;0.00;0.00;;;;;;;21.34;60.34;99419.88;5315039;26;20066;-95
2023/09/23 07:27:49;;;;;;;0.13;0.13;;;;;;;21.28;60.33;99422.97;5314100;26;20055;-96
2023/09/23 07:30:15;;;;;;;1.05;0.52;;;;;;;21.15;60.32;99420.47;5314772;26;20148;-96
2023/09/23 07:32:41;;;;;;;0.10;0.10;;;;;;;21.01;60.33;99421.56;5314473;26;20072;-96
2023/09/23 07:35:07;;;;;;;0.10;0.10;;;;;;;21.13;60.33;99436.47;5313976;26;20170;-96
2023/09/23 07:37:33;;;;;;;2.28;1.17;;;;;;;21.11;60.32;99438.41;5313839;26;20079;-96
2023/09/23 07:39:59;;;;;;;0.35;0.20;;;;;;;21.21;60.33;99440.31;5334290;26;20028;-96
2023/09/23 07:42:25;;;;;;;0.00;0.00;;;;;;;21.12;60.32;99436.59;5333719;26;20115;-95
2023/09/23 07:44:50;;;;;;;0.57;0.43;;;;;;;21.20;60.33;99435.97;5315390;26;20056;-95
2023/09/23 07:47:16;;;;;;;0.10;0.10;;;;;;;21.20;60.33;99441.28;5316453;26;20081;-95
2023/09/23 07:49:41;;;;;;;0.32;0.32;;;;;;;21.30;60.33;99426.38;5315171;26;20099;-95
2023/09/23 07:52:07;;;;;;;0.22;0.22;;;;;;;21.40;60.34;99419.34;5315862;26;20048;-96
2023/09/23 07:54:33;;;;;;;0.30;0.30;;;;;;;21.23;60.33;99427.78;5313585;26;20060;-95
2023/09/23 07:56:59;;;;;;;0.15;0.15;;;;;;;21.11;60.32;99409.31;5313478;26;20053;-95
2023/09/23 07:59:24;;;;;;;5.50;1.08;;;;;;;21.24;60.32;99389.78;5331843;26;20056;-96
2023/09/23 08:01:50;;;;;;;0.45;0.43;;;;;;;21.07;60.32;99372.62;5313253;26;20048;-96
2023/09/23 08:04:15;;;;;;;0.30;0.28;;;;;;;21.36;60.33;99357.03;5314015;26;20069;-96
2023/09/23 08:06:41;;;;;;;0.37;0.37;;;;;;;21.35;60.33;99344.75;5315912;26;20105;-96
2023/09/23 08:09:11;;;;;;;0.00;0.00;;;;;;;21.32;60.33;99331.78;5319706;26;20066;-96
2023/09/23 08:11:40;;;;;;;0.17;0.17;;;;;;;21.39;60.33;99315.25;5359000;26;20031;-96
2023/09/23 08:14:06;;;;;;;0.45;0.43;;;;;;;21.37;60.33;99289.88;5339852;26;20055;-96
2023/09/23 08:16:32;;;;;;;0.85;0.85;;;;;;;21.27;60.33;99281.00;5318831;26;20060;-96
2023/09/23 08:18:58;;;;;;;1.10;1.00;;;;;;;21.22;60.32;99269.94;5335185;26;20060;-95
2023/09/23 08:21:25;;;;;;;6.47;0.82;;;;;;;21.38;60.33;99283.59;5335601;26;20423;-96
2023/09/23 08:23:51;;;;;;;0.82;0.82;;;;;;;21.35;60.33;99291.81;5354501;26;20025;-96
2023/09/23 08:26:17;;;;;;;0.28;0.28;;;;;;;21.56;60.34;99276.75;5336380;26;20056;-96
2023/09/23 08:28:43;;;;;;;0.47;0.47;;;;;;;21.75;60.35;99274.19;5316804;26;20047;-96
2023/09/23 08:31:09;;;;;;;0.10;0.10;;;;;;;21.82;60.36;99274.53;5316847;26;20055;-96
2023/09/23 08:33:35;;;;;;;0.17;0.17;;;;;;;21.91;60.36;99268.44;5334641;26;20109;-96
2023/09/23 08:36:01;;;;;;;0.20;0.20;;;;;;;22.04;60.37;99281.50;5315094;26;20021;-96
2023/09/23 08:38:27;;;;;;;0.13;0.13;;;;;;;22.29;60.39;99283.69;5332280;26;20732;-96
2023/09/23 08:40:53;;;;;;;2.00;1.00;;;;;;;22.49;60.40;99276.63;5314196;26;20074;-96
2023/09/23 08:43:36;;;;;;;0.73;0.52;;;;;;;22.73;60.40;99272.78;5313550;26;20217;-96
2023/09/23 08:46:09;;;;;;;0.22;0.22;;;;;;;23.01;60.42;99271.97;5351259;26;20070;-96
2023/09/23 08:48:35;;;;;;;0.15;0.15;;;;;;;23.12;60.43;99282.44;5316210;26;20030;-96
2023/09/23 08:51:02;;;;;;;0.43;0.43;;;;;;;23.36;60.44;99273.19;5312372;26;20015;-96
2023/09/23 08:53:31;;;;;;;0.10;0.10;;;;;;;23.33;60.43;99271.66;5312576;26;20503;-96
2023/09/23 08:55:56;;;;;;;0.70;0.65;;;;;;;23.57;60.45;99265.94;5313892;26;20061;-96
2023/09/23 08:58:23;;;;;;;0.20;0.20;;;;;;;23.73;60.45;99281.28;5312806;26;20052;-96
2023/09/23 09:00:51;;;;;;;0.55;0.40;;;;;;;23.84;60.46;99289.91;5313753;26;20064;-96
2023/09/23 09:03:17;;;;;;;1.00;0.60;;;;;;;24.00;60.47;99315.87;5332108;26;20079;-96
2023/09/23 09:05:43;;;;;;;1.55;0.65;;;;;;;24.23;60.48;99320.84;5331576;26;20052;-96
2023/09/23 09:08:09;;;;;;;0.95;0.85;;;;;;;24.28;60.48;99330.09;5311994;26;20107;-95
2023/09/23 09:10:35;;;;;;;0.47;0.47;;;;;;;24.13;60.47;99347.47;5313873;26;20048;-96
2023/09/23 09:13:04;;;;;;;0.00;0.00;;;;;;;24.05;60.47;99347.34;5316993;26;20064;-96
2023/09/23 09:15:31;;;;;;;0.60;0.60;;;;;;;24.08;60.48;99347.91;5312331;26;20078;-96
2023/09/23 09:17:58;;;;;;;2.22;1.12;;;;;;;23.77;60.46;99362.41;5312229;26;20089;-96
2023/09/23 09:20:23;;;;;;;0.20;0.20;;;;;;;23.61;60.45;99368.28;5312154;26;20040;-96
2023/09/23 09:22:50;;;;;;;0.55;0.25;;;;;;;23.57;60.44;99380.16;5312213;26;20072;-95
2023/09/23 09:25:19;;;;;;;0.75;0.75;;;;;;;23.47;60.44;99374.84;5312373;26;20064;-96
2023/09/23 09:27:45;;;;;;;0.43;0.43;;;;;;;23.43;60.43;99386.72;5312679;26;20083;-95
2023/09/23 09:30:11;;;;;;;0.20;0.20;;;;;;;23.38;60.44;99380.12;5311655;26;20052;-96
2023/09/23 09:32:36;;;;;;;0.25;0.25;;;;;;;23.07;60.42;99379.41;5312271;26;20083;-96
2023/09/23 09:35:02;;;;;;;0.95;0.30;;;;;;;23.09;60.42;99378.31;5312240;26;20065;-96
2023/09/23 09:37:28;;;;;;;0.13;0.13;;;;;;;23.03;60.42;99381.50;5312179;26;20051;-96
2023/09/23 09:39:56;;;;;;;0.30;0.30;;;;;;;23.20;60.43;99380.84;5311550;26;20067;-96
2023/09/23 09:42:33;;;;;;;2.55;0.85;;;;;;;23.20;60.43;99378.19;5311631;26;20480;-96
2023/09/23 09:44:58;;;;;;;0.20;0.20;;;;;;;23.30;60.44;99362.25;5312761;26;20078;-96
2023/09/23 09:47:24;;;;;;;2.60;0.70;;;;;;;23.61;60.45;99367.44;5311292;26;20060;-96
2023/09/23 09:49:54;;;;;;;1.20;0.90;;;;;;;23.94;60.47;99358.19;5311492;26;20056;-96
2023/09/23 09:52:24;;;;;;;2.95;1.12;;;;;;;24.23;60.48;99363.41;5312887;26;20053;-96
2023/09/23 09:54:57;;;;;;;4.20;1.60;;;;;;;24.39;60.49;99350.38;5312063;26;20064;-96
2023/09/23 09:57:23;;;;;;;5.85;1.70;;;;;;;24.76;60.50;99345.81;5329877;26;20412;-96
2023/09/23 09:59:51;;;;;;;0.30;0.20;;;;;;;24.97;60.52;99350.88;5311359;26;20056;-96
2023/09/23 10:02:17;;;;;;;0.55;0.50;;;;;;;25.28;60.53;99359.34;5311145;26;20669;-96
2023/09/23 10:04:46;;;;;;;1.00;0.40;;;;;;;25.43;60.54;99349.00;5310973;26;20072;-95
2023/09/23 10:07:11;;;;;;;0.80;0.77;;;;;;;25.47;60.55;99345.03;5314672;26;20020;-95
2023/09/23 10:09:38;;;;;;;0.00;0.00;;;;;;;25.50;60.54;99359.88;5346682;26;20050;-96
2023/09/23 10:12:04;;;;;;;0.57;0.17;;;;;;;25.42;60.54;99347.34;5346114;26;20032;-96
2023/09/23 10:14:29;;;;;;;0.30;0.30;;;;;;;25.20;60.53;99343.31;5311622;26;20115;-94
2023/09/23 10:17:00;;;;;;;1.08;0.20;;;;;;;25.43;60.54;99354.34;5313351;26;20048;-95
2023/09/23 10:19:29;;;;;;;0.43;0.35;;;;;;;25.32;60.54;99360.75;5311322;26;20048;-95
2023/09/23 10:22:05;;;;;;;0.60;0.20;;;;;;;25.34;60.54;99365.94;5310828;26;20794;-96
2023/09/23 10:24:33;;;;;;;0.22;0.22;;;;;;;25.35;60.54;99373.75;5310826;26;20095;-94
2023/09/23 10:27:04;;;;;;;0.00;0.00;;;;;;;24.98;60.51;99376.50;5310756;26;20068;-95
2023/09/23 10:29:41;;;;;;;0.10;0.10;;;;;;;24.84;60.52;99369.00;5311250;26;20038;-95
2023/09/23 10:32:12;;;;;;;5.62;0.62;;;;;;;24.85;60.52;99361.91;5311099;26;20074;-94
2023/09/23 10:34:51;;;;;;;1.25;0.98;;;;;;;24.74;60.50;99365.59;5348037;26;20123;-96
2023/09/23 10:37:32;;;;;;;0.45;0.15;;;;;;;24.62;60.51;99370.28;5311432;26;20057;-96
2023/09/23 10:40:13;;;;;;;0.82;0.70;;;;;;;24.44;60.50;99378.19;5310712;26;20056;-95
2023/09/23 10:42:41;;;;;;;1.05;0.85;;;;;;;24.33;60.49;99382.84;5330254;26;20432;-95
2023/09/23 10:45:07;;;;;;;5.50;0.52;;;;;;;24.29;60.49;99379.66;5311495;26;20080;-95
2023/09/23 10:47:33;;;;;;;0.60;0.50;;;;;;;24.33;60.49;99373.03;5329447;26;20067;-95
2023/09/23 10:49:59;;;;;;;0.32;0.32;;;;;;;24.17;60.48;99381.63;5311287;26;20105;-94
2023/09/23 10:52:24;;;;;;;0.22;0.22;;;;;;;23.93;60.47;99383.91;5311086;26;20060;-95
2023/09/23 10:54:51;;;;;;;0.55;0.52;;;;;;;23.82;60.47;99397.34;5311263;26;20056;-96
2023/09/23 10:57:16;;;;;;;0.20;0.20;;;;;;;23.61;60.45;99409.94;5329558;26;20082;-94
2023/09/23 10:59:43;;;;;;;0.40;0.40;;;;;;;23.53;60.45;99418.59;5310609;26;20090;-94
2023/09/23 11:02:11;;;;;;;0.22;0.22;;;;;;;23.22;60.43;99404.59;5311680;26;20445;-96
2023/09/23 11:04:36;;;;;;;1.08;0.47;;;;;;;23.18;60.43;99413.78;5311365;26;20132;-94
2023/09/23 11:07:02;;;;;;;0.68;0.32;;;;;;;23.11;60.42;99423.28;5311149;26;20373;-95
2023/09/23 11:09:28;;;;;;;1.02;0.95;;;;;;;23.06;60.43;99444.94;5311486;26;20029;-94
2023/09/23 11:11:54;;;;;;;1.25;0.88;;;;;;;22.84;60.41;99448.66;5310936;26;20181;-93
2023/09/23 11:14:21;;;;;;;0.37;0.32;;;;;;;22.73;60.41;99438.13;5312512;26;20067;-95
2023/09/23 11:16:46;;;;;;;0.37;0.20;;;;;;;22.75;60.41;99449.44;5313059;26;20051;-95
2023/09/23 11:19:12;;;;;;;2.65;0.85;;;;;;;22.60;60.40;99453.41;5312538;26;20102;-94
2023/09/23 11:21:44;;;;;;;0.20;0.20;;;;;;;22.68;60.41;99453.56;5312086;26;20056;-94
2023/09/23 11:24:10;;;;;;;2.00;0.82;;;;;;;22.48;60.39;99455.31;5312758;26;20064;-94
2023/09/23 11:26:39;;;;;;;0.57;0.35;;;;;;;22.61;60.40;99457.75;5314302;26;20051;-95
2023/09/23 11:29:05;;;;;;;0.52;0.43;;;;;;;22.73;60.41;99438.13;5313702;26;20044;-95
2023/09/23 11:31:31;;;;;;;0.17;0.17;;;;;;;22.92;60.42;99426.72;5313836;26;20116;-94
2023/09/23 11:33:57;;;;;;;0.25;0.25;;;;;;;23.19;60.43;99431.44;5315220;26;20056;-94
2023/09/23 11:36:22;;;;;;;0.40;0.17;;;;;;;23.63;60.45;99427.44;5312923;26;20055;-94
2023/09/23 11:38:48;;;;;;;0.20;0.20;;;;;;;23.88;60.47;99426.84;5312165;26;20101;-96
2023/09/23 11:41:13;;;;;;;1.00;0.40;;;;;;;23.72;60.45;99431.94;5311611;26;20669;-96
2023/09/23 11:43:38;;;;;;;0.57;0.57;;;;;;;23.73;60.45;99430.09;5312579;26;20410;-94
2023/09/23 11:46:04;;;;;;;0.20;0.20;;;;;;;23.77;60.47;99428.84;5311873;26;20073;-93
2023/09/23 11:48:29;;;;;;;0.17;0.17;;;;;;;23.72;60.46;99428.44;5311506;26;20048;-94
2023/09/23 11:50:55;;;;;;;0.70;0.70;;;;;;;23.30;60.43;99444.56;5312050;26;20107;-95
2023/09/23 11:53:20;;;;;;;1.45;0.60;;;;;;;22.98;60.42;99444.78;5314426;26;20325;-95
2023/09/23 11:55:46;;;;;;;1.05;0.50;;;;;;;22.72;60.40;99455.00;5312645;26;20095;-93
2023/09/23 11:58:12;;;;;;;0.28;0.28;;;;;;;22.93;60.42;99466.41;5312468;26;20106;-96
2023/09/23 12:00:37;;;;;;;0.20;0.20;;;;;;;22.91;60.42;99475.47;5312803;26;20397;-95
2023/09/23 12:03:03;;;;;;;0.00;0.00;;;;;;;23.01;60.42;99472.88;5312181;26;20090;-96
2023/09/23 12:05:30;;;;;;;0.00;0.00;;;;;;;23.00;60.42;99463.25;5314444;26;20211;-94
2023/09/23 12:07:58;;;;;;;0.50;0.50;;;;;;;22.86;60.41;99459.97;5312865;26;20067;-94
2023/09/23 12:10:25;;;;;;;0.10;0.10;;;;;;;22.67;60.41;99465.16;5369195;26;20059;-92
2023/09/23 12:12:50;;;;;;;0.08;0.08;;;;;;;22.55;60.40;99468.88;5331697;26;20146;-94
2023/09/23 12:15:16;;;;;;;0.08;0.03;;;;;;;22.58;60.40;99485.38;5312695;26;20067;-95
2023/09/23 12:17:41;;;;;;;0.17;0.17;;;;;;;22.40;60.39;99489.59;5312424;26;20052;-95
2023/09/23 12:20:14;;;;;;;0.32;0.32;;;;;;;22.34;60.39;99496.25;5313466;26;20059;-95
2023/09/23 12:22:39;;;;;;;0.75;0.75;;;;;;;22.13;60.38;99484.81;5332532;26;20078;-93
2023/09/23 12:25:06;;;;;;;0.80;0.55;;;;;;;22.18;60.38;99492.38;5312200;26;20401;-93
2023/09/23 12:27:38;;;;;;;0.20;0.20;;;;;;;22.13;60.38;99491.94;5331165;26;20031;-96
2023/09/23 12:30:04;;;;;;;0.10;0.10;;;;;;;22.03;60.38;99505.09;5312809;26;20024;-93
2023/09/23 12:32:33;;;;;;;0.10;0.10;;;;;;;21.85;60.36;99515.41;5314271;26;20056;-91
2023/09/23 12:35:00;;;;;;;0.20;0.20;;;;;;;21.65;60.36;99517.03;5313496;26;20066;-94
2023/09/23 12:37:27;;;;;;;0.10;0.10;;;;;;;21.50;60.35;99512.94;5328807;26;20035;-94
2023/09/23 12:39:55;;;;;;;0.20;0.20;;;;;;;21.52;60.35;99516.31;5310352;26;20112;-93
2023/09/23 12:42:21;;;;;;;1.45;0.20;;;;;;;21.37;60.33;99515.75;5310843;26;20078;-93
2023/09/23 12:44:47;;;;;;;0.00;0.00;;;;;;;21.31;60.33;99500.38;5309785;26;20055;-93
2023/09/23 12:47:12;;;;;;;0.15;0.15;;;;;;;21.26;60.34;99502.53;5309749;26;20058;-95
2023/09/23 12:49:39;;;;;;;0.00;0.00;;;;;;;21.37;60.34;99504.34;5312781;26;20074;-96
2023/09/23 12:52:06;;;;;;;0.00;0.00;;;;;;;21.18;60.33;99510.22;5310978;26;20082;-94
2023/09/23 12:54:31;;;;;;;0.00;0.00;;;;;;;21.40;60.33;99525.25;5312167;26;20726;-92
2023/09/23 12:56:57;;;;;;;0.03;0.03;;;;;;;21.46;60.34;99535.34;5311810;26;20058;-96
2023/09/23 12:59:23;;;;;;;0.00;0.00;;;;;;;21.38;60.33;99535.13;5310293;26;20056;-94
2023/09/23 13:01:48;;;;;;;0.65;0.57;;;;;;;21.40;60.33;99523.47;5313950;26;20056;-95
2023/09/23 13:04:14;;;;;;;0.03;0.03;;;;;;;21.41;60.34;99527.78;5326178;26;20054;-94
2023/09/23 13:06:39;;;;;;;0.00;0.00;;;;;;;21.32;60.33;99525.06;5325078;26;20059;-95
2023/09/23 13:09:05;;;;;;;0.00;0.00;;;;;;;21.18;60.33;99526.09;5314511;26;20343;-93
2023/09/23 13:11:31;;;;;;;0.00;0.00;;;;;;;20.98;60.32;99542.69;5315483;26;20055;-95
2023/09/23 13:13:56;;;;;;;0.00;0.00;;;;;;;21.00;60.32;99541.63;5313010;26;20070;-92
2023/09/23 13:16:22;;;;;;;0.00;0.00;;;;;;;21.20;60.33;99536.56;5313743;26;20066;-94
2023/09/23 13:18:48;;;;;;;0.17;0.10;;;;;;;21.14;60.32;99525.50;5315258;26;20102;-95
2023/09/23 13:21:14;;;;;;;0.25;0.25;;;;;;;21.28;60.33;99518.28;5334319;26;20420;-94
2023/09/23 13:23:39;;;;;;;0.00;0.00;;;;;;;21.42;60.34;99510.94;5314080;26;20078;-95
2023/09/23 13:26:06;;;;;;;0.10;0.10;;;;;;;21.67;60.35;99495.69;5317424;26;20067;-95
2023/09/23 13:28:32;;;;;;;0.00;0.00;;;;;;;21.61;60.35;99488.25;5313859;26;20083;-95
2023/09/23 13:31:01;;;;;;;0.20;0.13;;;;;;;21.59;60.35;99495.50;5313745;26;20069;-93
2023/09/23 13:33:27;;;;;;;0.00;0.00;;;;;;;21.56;60.34;99493.09;5313916;26;20060;-95
2023/09/23 13:35:53;;;;;;;0.05;0.05;;;;;;;21.39;60.33;99494.47;5313492;26;20043;-94
2023/09/23 13:38:19;;;;;;;0.00;0.00;;;;;;;21.34;60.33;99492.19;5312239;26;20106;-96
2023/09/23 13:40:45;;;;;;;0.00;0.00;;;;;;;21.48;60.35;99506.94;5316093;26;20106;-94
2023/09/23 13:43:11;;;;;;;0.00;0.00;;;;;;;20.94;60.31;99528.03;5340152;26;20051;-96
2023/09/23 13:45:37;;;;;;;0.13;0.13;;;;;;;21.05;60.32;99534.16;5334249;26;20020;-96
2023/09/23 13:48:05;;;;;;;0.00;0.00;;;;;;;20.95;60.32;99532.38;5314771;26;20076;-95
2023/09/23 13:50:31;;;;;;;0.10;0.10;;;;;;;20.89;60.31;99538.97;5312994;26;20055;-96
2023/09/23 13:52:57;;;;;;;0.70;0.47;;;;;;;20.93;60.31;99545.72;5316166;26;20498;-94
2023/09/23 13:55:23;;;;;;;0.28;0.28;;;;;;;20.77;60.30;99561.09;5333120;26;20159;-95
2023/09/23 13:57:49;;;;;;;0.00;0.00;;;;;;;20.78;60.30;99554.84;5311800;26;20081;-94
2023/09/23 14:00:16;;;;;;;0.00;0.00;;;;;;;20.73;60.31;99554.34;5330565;26;20444;-95
2023/09/23 14:02:44;;;;;;;0.22;0.22;;;;;;;20.92;60.32;99562.56;5331583;26;20104;-95
2023/09/23 14:05:11;;;;;;;0.00;0.00;;;;;;;20.80;60.31;99558.19;5315725;26;20691;-96
2023/09/23 14:07:37;;;;;;;1.40;0.68;;;;;;;20.76;60.30;99554.94;5313233;26;20117;-96
2023/09/23 14:10:03;;;;;;;0.13;0.13;;;;;;;20.90;60.31;99545.97;5330384;26;20055;-95
2023/09/23 14:12:31;;;;;;;0.00;0.00;;;;;;;20.83;60.31;99560.63;5312201;26;20063;-96